Relevés horaires Bierset (Belgique)


Relevés horaires à Bierset - Jeudi 28 Sept. 2023
Heure UTC1 Température [°C] Vent [km/h] Hum. [%] Pres.4 [hPa] Visi. [Km] Nébu. [octa] Préc.5 [mm] Cond.
2m. Res. Ros. Dir.2 Vit. Moy. Raf.3
23:00 16.8 16.8 13.5 S 7.4 9.3 16.7 81 1017.3(-0.1/3h) 30 5/8 -- --
22:00 17.3 17.3 13.4 S 9.3 9.3 20.4 78 1017.1(-0.6/3h) 30 5/8 -- --
21:00 17.5 17.5 13.3 S 7.4 7.4 13.0 76 1017(-0.4/3h) 30 5/8 -- --
20:00 18.0 18.0 13.4 S 7.4 7.4 13.0 74 1017.3(0.4/3h) 30 5/8 -- --
19:00 18.3 18.3 13.3 SSO 7.4 7.4 11.1 73 1017.6(0.6/3h) 30 5/8 -- --
18:00 19.1 19.1 13.9 SSO 5.6 11.1 14.8 72 1017.3(-0.1/3h) 30 5/8 0/12h
--
17:00 20.0 20.0 14.3 S 5.6 9.3 14.8 70 1016.8(-0.8/3h) 30 6/8 -- --
16:00 20.9 20.9 13.7 SSO 9.3 11.1 14.8 63 1016.9(-0.9/3h) 30 6/8 -- --
15:00 21.2 21.2 13.7 SO 11.1 11.1 14.8 62 1017.2(-1.2/3h) 30 6/8 -- --
14:00 21.4 21.4 14.7 SO 7.4 9.3 14.8 66 1017.4(-1.0/3h) 30 5/8 -- --
13:00 20.8 20.8 14.8 SSO 9.3 9.3 13.0 69 1017.8(-1.0/3h) 30 4/8 -- --
12:00 19.5 19.5 14.7 SO 5.6 11.1 14.8 74 1018.6(0.1/3h) 30 7/8 0/6h
--
11:00 19.1 19.1 14.0 SO 5.6 7.4 13.0 72 1018.6(0.3/3h) 30 7/8 -- --
10:00 18.6 18.6 13.7 SSO 7.4 11.1 14.8 73 1018.9(1.0/3h) 30 7/8 -- --
09:00 18.2 18.2 13.3 SO 7.4 7.4 13.0 73 1018.8(1.6/3h) 30 5/8 -- --
08:00 17.1 17.1 13.5 SO 5.6 7.4 13.0 79 1018.5(1.8/3h) 30 4/8 -- --
07:00 16.3 16.3 14.0 SO 5.6 7.4 9.3 86 1018.1(1.5/3h) 30 4/8 -- --
06:00 15.8 15.8 13.4 S 5.6 9.3 18.5 86 1017.3(1.1/3h) 30 4/8 0/12h
--
05:00 16.4 16.4 13.3 SSO 5.6 7.4 13.0 82 1016.8(1.1/3h) 30 2/8 -- --
04:00 17.1 17.1 13.2 SSO 7.4 7.4 13.0 78 1016.5(1.3/3h) 30 4/8 -- --
03:00 17.6 17.6 13.1 SSO 7.4 9.3 18.5 75 1016.1(1.2/3h) 30 4/8 -- --
02:00 19.0 19.0 12.9 S 7.4 9.3 13.0 68 1015.4(1.4/3h) 30 5/8 -- --
01:00 19.1 19.1 12.9 SSO 7.4 9.3 13.0 67 1015.3(1.3/3h) 30 7/8 -- --
00:00 19.4 19.4 12.6 S 9.3 13.0 22.2 65 1014.7(-0.1/3h) 30 7/8 0/6h
0/24h
--

1 Coordinated Universal Time. Actuellement il est 00:00 locale et 22:00 UTC.

2 Le vent souffle depuis la direction indiquée vers la direction oposée.

3 Les rafales max. sont disponible 40 min après l'heure du relevé.

4 Pour les stations d'altitude (plus de 600m) le géopotentiel du niveau le plus proche de la pression obligatoire est indiqué.

5 Les stations disposant d'un diffuseur peuvent indiquer "trace". Cela signifie que des précipitations ont touchés le sol mais que la quantité est inférieure à 0.1 mm.

Récapitulatif de la journée
Température [°C] Vent [km/h] Ensoleillement4 [h] Precipitations totale5 [mm] Pression [Hpa]
Min1 Max.2 Moy.3 Max. Min Max.
15.5 22.0 9.1 22.2 0 h 0 min 0 1014.7 1018.9

1 Température minimale relevée entre 18:00 UTC la veille et 18:00 UTC le jour donné.

2 Température maximale relevée entre 06:00 UTC le jour donné et 06:00 UTC le lendemain.

3 Vent moyen de la journée basé sur les relevés horaires.

4 Ensoleillement en heures relevé entre 06:00 UTC la veille et 06:00 UTC le jour donné.

5 Précipitations totales tombées entre 06:00 UTC la jour donné et 06:00 UTC le lendemain.

Graphiques horaires